createdAt,value
2023-01-26T00:02:51.725Z,1013.22
2023-01-26T00:05:51.687Z,1013.2
2023-01-26T00:08:51.694Z,1013.15
2023-01-26T00:11:51.700Z,1013.1
2023-01-26T00:14:51.692Z,1013.01
2023-01-26T00:17:51.686Z,1012.99
2023-01-26T00:20:51.690Z,1012.98
2023-01-26T00:23:51.746Z,1012.9
2023-01-26T00:26:51.690Z,1012.88
2023-01-26T00:29:51.689Z,1012.9
2023-01-26T00:32:51.689Z,1012.89
2023-01-26T00:35:51.688Z,1012.86
2023-01-26T00:38:51.685Z,1012.87
2023-01-26T00:41:51.694Z,1012.88
2023-01-26T00:44:51.687Z,1012.82
2023-01-26T00:47:51.705Z,1012.85
2023-01-26T00:50:51.693Z,1012.9
2023-01-26T00:53:51.690Z,1012.86
2023-01-26T00:56:51.694Z,1012.83
2023-01-26T00:59:51.695Z,1012.78
2023-01-26T01:02:51.689Z,1012.86
2023-01-26T01:05:51.693Z,1012.79
2023-01-26T01:08:51.699Z,1012.76
2023-01-26T01:11:51.706Z,1012.82
2023-01-26T01:14:51.707Z,1012.87
2023-01-26T01:17:51.695Z,1012.87
2023-01-26T01:20:51.702Z,1012.83
2023-01-26T01:23:51.733Z,1012.87
2023-01-26T01:26:51.693Z,1012.91
2023-01-26T01:29:51.696Z,1012.93
2023-01-26T01:32:51.772Z,1012.91
2023-01-26T01:35:51.694Z,1012.86
2023-01-26T01:38:51.694Z,1012.84
2023-01-26T01:41:51.693Z,1012.84
2023-01-26T01:44:51.711Z,1012.84
2023-01-26T01:47:51.694Z,1012.83
2023-01-26T01:50:51.699Z,1012.83
2023-01-26T01:53:51.696Z,1012.87
2023-01-26T01:56:51.728Z,1012.81
2023-01-26T01:59:51.695Z,1012.75
2023-01-26T02:02:51.691Z,1012.7
2023-01-26T02:05:51.697Z,1012.63
2023-01-26T02:08:51.701Z,1012.64
2023-01-26T02:11:51.711Z,1012.67
2023-01-26T02:14:51.709Z,1012.66
2023-01-26T02:17:51.693Z,1012.51
2023-01-26T02:20:51.700Z,1012.53
2023-01-26T02:23:51.716Z,1012.54
2023-01-26T02:26:51.698Z,1012.58
2023-01-26T02:29:51.698Z,1012.52
2023-01-26T02:32:51.705Z,1012.51
2023-01-26T02:35:51.696Z,1012.5
2023-01-26T02:38:51.695Z,1012.47
2023-01-26T02:41:51.706Z,1012.47
2023-01-26T02:44:51.713Z,1012.45
2023-01-26T02:47:51.704Z,1012.41
2023-01-26T02:50:51.697Z,1012.36
2023-01-26T02:53:51.702Z,1012.29
2023-01-26T02:56:51.700Z,1012.26
2023-01-26T02:59:51.707Z,1012.23
2023-01-26T03:02:51.699Z,1012.21
2023-01-26T03:05:51.699Z,1012.18
2023-01-26T03:08:51.698Z,1012.11
2023-01-26T03:11:51.706Z,1012.12
2023-01-26T03:14:51.691Z,1012.1
2023-01-26T03:17:51.701Z,1012.1
2023-01-26T03:20:51.693Z,1012.07
2023-01-26T03:23:51.729Z,1012.05
2023-01-26T03:26:51.722Z,1012.07
2023-01-26T03:29:51.703Z,1012.02
2023-01-26T03:32:51.698Z,1012.04
2023-01-26T03:35:51.702Z,1012.07
2023-01-26T03:38:51.707Z,1012
2023-01-26T03:41:51.708Z,1011.95
2023-01-26T03:44:51.704Z,1011.88
2023-01-26T03:47:51.702Z,1011.82
2023-01-26T03:50:51.706Z,1011.92
2023-01-26T03:53:51.702Z,1011.9
2023-01-26T03:56:51.727Z,1011.92
2023-01-26T03:59:51.708Z,1011.86
2023-01-26T04:02:51.703Z,1011.85
2023-01-26T04:05:51.710Z,1011.79
2023-01-26T04:08:51.699Z,1011.75
2023-01-26T04:11:51.700Z,1011.72
2023-01-26T04:14:51.709Z,1011.75
2023-01-26T04:17:51.709Z,1011.68
2023-01-26T04:20:51.704Z,1011.6
2023-01-26T04:23:51.714Z,1011.63
2023-01-26T04:26:51.713Z,1011.63
2023-01-26T04:29:51.701Z,1011.6
2023-01-26T04:32:51.708Z,1011.58
2023-01-26T04:35:51.713Z,1011.57
2023-01-26T04:38:51.726Z,1011.55
2023-01-26T04:41:51.714Z,1011.55
2023-01-26T04:44:51.709Z,1011.54
2023-01-26T04:47:51.708Z,1011.56
2023-01-26T04:50:51.712Z,1011.53
2023-01-26T04:53:51.712Z,1011.55
2023-01-26T04:56:51.708Z,1011.51
2023-01-26T04:59:51.708Z,1011.46
2023-01-26T05:02:51.718Z,1011.44
2023-01-26T05:05:51.710Z,1011.42
2023-01-26T05:08:51.707Z,1011.37
2023-01-26T05:11:51.713Z,1011.4
2023-01-26T05:14:51.715Z,1011.44
2023-01-26T05:17:51.724Z,1011.37
2023-01-26T05:20:51.710Z,1011.39
2023-01-26T05:23:51.753Z,1011.37
2023-01-26T05:26:51.722Z,1011.33
2023-01-26T05:29:51.712Z,1011.33
2023-01-26T05:32:51.711Z,1011.31
2023-01-26T05:35:51.724Z,1011.29
2023-01-26T05:38:51.715Z,1011.32
2023-01-26T05:41:51.723Z,1011.34
2023-01-26T05:44:51.715Z,1011.42
2023-01-26T05:47:51.715Z,1011.42
2023-01-26T05:50:51.722Z,1011.43
2023-01-26T05:53:51.712Z,1011.49
2023-01-26T05:56:51.719Z,1011.45
2023-01-26T05:59:51.719Z,1011.54
2023-01-26T06:02:51.712Z,1011.57
2023-01-26T06:05:51.717Z,1011.58
2023-01-26T06:08:51.733Z,1011.63
2023-01-26T06:11:51.724Z,1011.7
2023-01-26T06:14:51.720Z,1011.69
2023-01-26T06:17:51.722Z,1011.68
2023-01-26T06:20:51.716Z,1011.68
2023-01-26T06:23:51.771Z,1011.72
2023-01-26T06:26:51.720Z,1011.72
2023-01-26T06:29:51.729Z,1011.69
2023-01-26T06:32:51.730Z,1011.71
2023-01-26T06:35:51.733Z,1011.78
2023-01-26T06:38:51.723Z,1011.83
2023-01-26T06:41:51.726Z,1011.76
2023-01-26T06:44:51.731Z,1011.79
2023-01-26T06:47:51.725Z,1011.71
2023-01-26T06:50:51.730Z,1011.73
2023-01-26T06:53:51.766Z,1011.7
2023-01-26T06:56:51.773Z,1011.79
2023-01-26T06:59:51.767Z,1011.81
2023-01-26T07:02:51.767Z,1011.82
2023-01-26T07:05:51.769Z,1011.8
2023-01-26T07:08:51.763Z,1011.88
2023-01-26T07:11:51.771Z,1011.87
2023-01-26T07:14:51.770Z,1011.91
2023-01-26T07:17:51.772Z,1011.97
2023-01-26T07:20:51.772Z,1011.99
2023-01-26T07:23:51.818Z,1012.03
2023-01-26T07:26:51.766Z,1012.05
2023-01-26T07:29:51.771Z,1012.09
2023-01-26T07:32:51.778Z,1012.14
2023-01-26T07:35:51.763Z,1012.1
2023-01-26T07:38:51.758Z,1012.12
2023-01-26T07:41:51.771Z,1012.1
2023-01-26T07:44:51.770Z,1012.13
2023-01-26T07:47:51.779Z,1012.1
2023-01-26T07:50:51.782Z,1012.15
2023-01-26T07:53:51.765Z,1012.15
2023-01-26T07:56:51.770Z,1012.15
2023-01-26T07:59:51.768Z,1012.15
2023-01-26T08:02:51.794Z,1012.2
2023-01-26T08:05:51.775Z,1012.19
2023-01-26T08:08:51.771Z,1012.24
2023-01-26T08:11:51.769Z,1012.23
2023-01-26T08:14:51.764Z,1012.26
2023-01-26T08:17:54.229Z,1012.29
2023-01-26T08:20:51.765Z,1012.33
2023-01-26T08:23:51.794Z,1012.34
2023-01-26T08:26:51.775Z,1012.33
2023-01-26T08:29:51.769Z,1012.39
2023-01-26T08:32:51.771Z,1012.41
2023-01-26T08:35:51.790Z,1012.38
2023-01-26T08:38:51.839Z,1012.39
2023-01-26T08:41:51.768Z,1012.38
2023-01-26T08:44:51.774Z,1012.37
2023-01-26T08:47:51.782Z,1012.41
2023-01-26T08:50:51.775Z,1012.39
2023-01-26T08:53:51.777Z,1012.36
2023-01-26T08:56:51.778Z,1012.39
2023-01-26T08:59:51.789Z,1012.38
2023-01-26T09:02:51.886Z,1012.38
2023-01-26T09:05:51.780Z,1012.43
2023-01-26T09:08:51.781Z,1012.45
2023-01-26T09:11:51.771Z,1012.46
2023-01-26T09:14:51.776Z,1012.48
2023-01-26T09:17:51.777Z,1012.44
2023-01-26T09:20:51.802Z,1012.47
2023-01-26T09:23:51.802Z,1012.5
2023-01-26T09:26:51.800Z,1012.44
2023-01-26T09:29:51.830Z,1012.49
2023-01-26T09:32:51.772Z,1012.49
2023-01-26T09:35:51.778Z,1012.55
2023-01-26T09:38:51.787Z,1012.62
2023-01-26T09:41:51.776Z,1012.56
2023-01-26T09:44:51.775Z,1012.53
2023-01-26T09:47:51.781Z,1012.48
2023-01-26T09:50:51.886Z,1012.47
2023-01-26T09:53:51.801Z,1012.51
2023-01-26T09:56:51.852Z,1012.49
2023-01-26T09:59:51.790Z,1012.49
2023-01-26T10:02:51.876Z,1012.5
2023-01-26T10:05:51.800Z,1012.48
2023-01-26T10:08:51.780Z,1012.48
2023-01-26T10:11:51.784Z,1012.43
2023-01-26T10:14:51.781Z,1012.44
2023-01-26T10:17:51.783Z,1012.37
2023-01-26T10:20:51.784Z,1012.42
2023-01-26T10:23:51.831Z,1012.41
2023-01-26T10:26:51.784Z,1012.4
2023-01-26T10:29:51.781Z,1012.37
2023-01-26T10:32:51.796Z,1012.31
2023-01-26T10:35:51.793Z,1012.21
2023-01-26T10:38:51.789Z,1012.19
2023-01-26T10:41:51.780Z,1012.15
2023-01-26T10:44:51.794Z,1012.21
2023-01-26T10:47:51.781Z,1012.2
2023-01-26T10:50:51.786Z,1012.15
2023-01-26T10:53:51.782Z,1012.12
2023-01-26T10:56:51.784Z,1012.15
2023-01-26T10:59:51.784Z,1012.14
2023-01-26T11:02:51.828Z,1012.11
2023-01-26T11:05:51.784Z,1012.07
2023-01-26T11:08:51.789Z,1012.03
2023-01-26T11:11:51.786Z,1012.02
2023-01-26T11:14:51.786Z,1012.08
2023-01-26T11:17:51.807Z,1012.04
2023-01-26T11:20:51.783Z,1011.99
2023-01-26T11:23:51.801Z,1011.95
2023-01-26T11:26:51.796Z,1011.87
2023-01-26T11:29:51.780Z,1011.85
2023-01-26T11:32:51.789Z,1011.77
2023-01-26T11:35:51.789Z,1011.75
2023-01-26T11:38:51.792Z,1011.69
2023-01-26T11:41:51.790Z,1011.69
2023-01-26T11:44:51.783Z,1011.71
2023-01-26T11:47:51.795Z,1011.73
2023-01-26T11:50:51.794Z,1011.7
2023-01-26T11:53:51.791Z,1011.59
2023-01-26T11:56:51.804Z,1011.54
2023-01-26T11:59:51.788Z,1011.48
2023-01-26T12:02:51.790Z,1011.49
2023-01-26T12:05:51.798Z,1011.47
2023-01-26T12:08:51.800Z,1011.42
2023-01-26T12:11:51.801Z,1011.44
2023-01-26T12:14:51.793Z,1011.35
2023-01-26T12:17:51.794Z,1011.31
2023-01-26T12:20:51.797Z,1011.3
2023-01-26T12:23:51.853Z,1011.27
2023-01-26T12:26:51.795Z,1011.21
2023-01-26T12:29:51.793Z,1011.14
2023-01-26T12:32:51.883Z,1011.1
2023-01-26T12:35:51.797Z,1011.01
2023-01-26T12:38:51.804Z,1010.97
2023-01-26T12:41:51.791Z,1010.94
2023-01-26T12:44:51.799Z,1010.94
2023-01-26T12:47:51.798Z,1010.93
2023-01-26T12:50:51.798Z,1010.92
2023-01-26T12:53:51.796Z,1010.88
2023-01-26T12:56:51.803Z,1010.91
2023-01-26T12:59:51.795Z,1010.89
2023-01-26T13:02:51.862Z,1010.91
2023-01-26T13:05:51.796Z,1010.9
2023-01-26T13:08:51.799Z,1010.86
2023-01-26T13:11:51.850Z,1010.87
2023-01-26T13:14:51.858Z,1010.86
2023-01-26T13:17:51.880Z,1010.79
2023-01-26T13:20:51.857Z,1010.82
2023-01-26T13:23:52.751Z,1010.84
2023-01-26T13:26:51.868Z,1010.85
2023-01-26T13:29:51.865Z,1010.76
2023-01-26T13:32:51.859Z,1010.76
2023-01-26T13:35:51.867Z,1010.75
2023-01-26T13:38:51.858Z,1010.8
2023-01-26T13:41:51.848Z,1010.79
2023-01-26T13:44:51.855Z,1010.77
2023-01-26T13:47:51.855Z,1010.82
2023-01-26T13:50:51.930Z,1010.82
2023-01-26T13:53:51.843Z,1010.83
2023-01-26T13:56:51.852Z,1010.79
2023-01-26T13:59:51.866Z,1010.82
2023-01-26T14:02:51.919Z,1010.83
2023-01-26T14:05:51.877Z,1010.79
2023-01-26T14:08:51.877Z,1010.8
2023-01-26T14:11:51.870Z,1010.83
2023-01-26T14:14:51.868Z,1010.92
2023-01-26T14:17:51.887Z,1010.93
2023-01-26T14:20:51.870Z,1010.96
2023-01-26T14:23:51.923Z,1010.98
2023-01-26T14:26:51.884Z,1010.99
2023-01-26T14:29:51.880Z,1011.02
2023-01-26T14:32:51.876Z,1011.11
2023-01-26T14:35:51.870Z,1011.2
2023-01-26T14:38:51.897Z,1011.16
2023-01-26T14:41:51.895Z,1011.19
2023-01-26T14:44:51.885Z,1011.25
2023-01-26T14:47:51.890Z,1011.21
2023-01-26T14:50:51.886Z,1011.2
2023-01-26T14:53:51.901Z,1011.19
2023-01-26T14:56:51.884Z,1011.2
2023-01-26T14:59:51.889Z,1011.19
2023-01-26T15:02:51.893Z,1011.13
2023-01-26T15:05:51.892Z,1011.11
2023-01-26T15:08:51.930Z,1011.11
2023-01-26T15:11:51.891Z,1011.11
2023-01-26T15:14:51.888Z,1011.05
2023-01-26T15:17:51.879Z,1011.03
2023-01-26T15:20:51.897Z,1010.94
2023-01-26T15:23:51.944Z,1010.98
2023-01-26T15:26:51.887Z,1011.01
2023-01-26T15:29:51.894Z,1011.08
2023-01-26T15:32:51.885Z,1011.07
2023-01-26T15:35:51.894Z,1011.09
2023-01-26T15:38:51.887Z,1011.04
2023-01-26T15:41:51.898Z,1011.03
2023-01-26T15:44:51.895Z,1011.03
2023-01-26T15:47:51.906Z,1011.09
2023-01-26T15:50:51.894Z,1011.05
2023-01-26T15:53:51.886Z,1010.99
2023-01-26T15:56:51.894Z,1011.02
2023-01-26T15:59:51.903Z,1010.99
2023-01-26T16:02:51.896Z,1010.98
2023-01-26T16:05:51.919Z,1011
2023-01-26T16:08:51.889Z,1011.04
2023-01-26T16:11:51.902Z,1011.05
2023-01-26T16:14:51.892Z,1011.06
2023-01-26T16:17:51.897Z,1011.02
2023-01-26T16:20:51.906Z,1010.96
2023-01-26T16:23:51.960Z,1010.93
2023-01-26T16:26:51.919Z,1010.92
2023-01-26T16:29:51.899Z,1010.9
2023-01-26T16:32:51.903Z,1010.97
2023-01-26T16:35:51.898Z,1010.99
2023-01-26T16:38:51.899Z,1010.99
2023-01-26T16:41:51.899Z,1010.97
2023-01-26T16:44:51.895Z,1010.93
2023-01-26T16:47:51.900Z,1010.88
2023-01-26T16:50:51.913Z,1010.93
2023-01-26T16:53:51.896Z,1010.93
2023-01-26T16:56:51.902Z,1010.91
2023-01-26T16:59:51.901Z,1010.94
2023-01-26T17:02:51.898Z,1010.91
2023-01-26T17:05:51.904Z,1010.95
2023-01-26T17:08:51.894Z,1010.94
2023-01-26T17:11:51.899Z,1010.97
2023-01-26T17:14:52.036Z,1010.94
2023-01-26T17:17:51.906Z,1010.89
2023-01-26T17:20:51.908Z,1010.89
2023-01-26T17:23:51.949Z,1010.95
2023-01-26T17:26:51.900Z,1010.95
2023-01-26T17:29:51.898Z,1010.97
2023-01-26T17:32:51.913Z,1010.99
2023-01-26T17:35:51.908Z,1011.01
2023-01-26T17:38:51.897Z,1010.94
2023-01-26T17:41:51.918Z,1010.97
2023-01-26T17:44:51.920Z,1010.95
2023-01-26T17:47:51.892Z,1010.99
2023-01-26T17:50:51.909Z,1011.04
2023-01-26T17:53:51.906Z,1011.06
2023-01-26T17:56:51.904Z,1011.03
2023-01-26T17:59:51.909Z,1011.11
2023-01-26T18:02:51.900Z,1011.05
2023-01-26T18:05:51.905Z,1011.07
2023-01-26T18:08:51.916Z,1011.09
2023-01-26T18:11:51.904Z,1011.11
2023-01-26T18:14:53.655Z,1011.12
2023-01-26T18:17:51.914Z,1011.11
2023-01-26T18:20:51.912Z,1011.12
2023-01-26T18:23:51.967Z,1011.13
2023-01-26T18:26:51.913Z,1011.18
2023-01-26T18:29:51.917Z,1011.15
2023-01-26T18:32:51.922Z,1011.17
2023-01-26T18:35:51.920Z,1011.17
2023-01-26T18:38:51.904Z,1011.18
2023-01-26T18:41:51.922Z,1011.14
2023-01-26T18:44:51.913Z,1011.22
2023-01-26T18:47:51.918Z,1011.2
2023-01-26T18:50:51.916Z,1011.15
2023-01-26T18:53:51.919Z,1011.17
2023-01-26T18:56:51.923Z,1011.14
2023-01-26T18:59:51.921Z,1011.17
2023-01-26T19:02:51.930Z,1011.18
2023-01-26T19:05:51.922Z,1011.15
2023-01-26T19:08:51.911Z,1011.17
2023-01-26T19:11:51.915Z,1011.19
2023-01-26T19:14:51.926Z,1011.24
2023-01-26T19:17:51.921Z,1011.24
2023-01-26T19:20:51.917Z,1011.26
2023-01-26T19:23:51.998Z,1011.19
2023-01-26T19:26:51.914Z,1011.17
2023-01-26T19:29:51.913Z,1011.11
2023-01-26T19:32:51.918Z,1011.11
2023-01-26T19:35:51.913Z,1011.1
2023-01-26T19:38:51.927Z,1011.11
2023-01-26T19:41:51.925Z,1011.08
2023-01-26T19:44:51.925Z,1011.11
2023-01-26T19:47:51.919Z,1011.08
2023-01-26T19:50:51.921Z,1011.1
2023-01-26T19:53:51.926Z,1011.14
2023-01-26T19:56:51.915Z,1011.14
2023-01-26T19:59:51.917Z,1011.09
2023-01-26T20:02:51.927Z,1011.13
2023-01-26T20:05:51.934Z,1011.11
2023-01-26T20:08:51.920Z,1011.06
2023-01-26T20:11:51.926Z,1011.04
2023-01-26T20:14:51.929Z,1011.05
2023-01-26T20:17:51.923Z,1010.99
2023-01-26T20:20:51.926Z,1011.04
2023-01-26T20:23:55.120Z,1011.04
2023-01-26T20:26:51.925Z,1011.04
2023-01-26T20:29:51.938Z,1011.09
2023-01-26T20:32:51.930Z,1011.06
2023-01-26T20:35:51.929Z,1011.03
2023-01-26T20:38:51.959Z,1011
2023-01-26T20:41:51.947Z,1010.96
2023-01-26T20:44:51.928Z,1010.91
2023-01-26T20:47:51.930Z,1010.9
2023-01-26T20:50:51.928Z,1010.9
2023-01-26T20:53:51.956Z,1010.84
2023-01-26T20:56:52.024Z,1010.85
2023-01-26T20:59:51.920Z,1010.78
2023-01-26T21:02:51.924Z,1010.78
2023-01-26T21:05:51.930Z,1010.75
2023-01-26T21:08:51.969Z,1010.75
2023-01-26T21:11:51.961Z,1010.71
2023-01-26T21:14:51.934Z,1010.74
2023-01-26T21:17:51.951Z,1010.71
2023-01-26T21:20:51.941Z,1010.67
2023-01-26T21:23:52.031Z,1010.65
2023-01-26T21:26:51.932Z,1010.66
2023-01-26T21:29:51.935Z,1010.63
2023-01-26T21:32:51.937Z,1010.58
2023-01-26T21:35:51.936Z,1010.56
2023-01-26T21:38:51.937Z,1010.59
2023-01-26T21:41:51.949Z,1010.58
2023-01-26T21:44:51.962Z,1010.55
2023-01-26T21:47:51.928Z,1010.56
2023-01-26T21:50:53.150Z,1010.56
2023-01-26T21:53:51.935Z,1010.57
2023-01-26T21:56:51.936Z,1010.49
2023-01-26T21:59:51.939Z,1010.46
2023-01-26T22:02:51.938Z,1010.49
2023-01-26T22:05:51.942Z,1010.47
2023-01-26T22:08:51.942Z,1010.49
2023-01-26T22:11:51.943Z,1010.46
2023-01-26T22:14:51.954Z,1010.43
2023-01-26T22:17:51.944Z,1010.42
2023-01-26T22:20:51.938Z,1010.44
2023-01-26T22:23:51.979Z,1010.47
2023-01-26T22:26:51.942Z,1010.5
2023-01-26T22:29:51.943Z,1010.46
2023-01-26T22:32:51.966Z,1010.44
2023-01-26T22:35:51.941Z,1010.51
2023-01-26T22:38:51.947Z,1010.53
2023-01-26T22:41:51.953Z,1010.55
2023-01-26T22:44:51.952Z,1010.51
2023-01-26T22:47:51.950Z,1010.5
2023-01-26T22:50:51.945Z,1010.48
2023-01-26T22:53:51.959Z,1010.53
2023-01-26T22:56:51.953Z,1010.53
2023-01-26T22:59:51.949Z,1010.51
2023-01-26T23:02:51.948Z,1010.51
2023-01-26T23:05:51.943Z,1010.42
2023-01-26T23:08:51.949Z,1010.35
2023-01-26T23:11:51.949Z,1010.33
2023-01-26T23:14:51.946Z,1010.31
2023-01-26T23:17:51.948Z,1010.2
2023-01-26T23:20:51.944Z,1010.29
2023-01-26T23:23:52.046Z,1010.26
2023-01-26T23:26:51.961Z,1010.25
2023-01-26T23:29:51.944Z,1010.32
2023-01-26T23:32:51.956Z,1010.32
2023-01-26T23:35:51.951Z,1010.31
2023-01-26T23:38:51.944Z,1010.28
2023-01-26T23:41:51.947Z,1010.28
2023-01-26T23:44:51.948Z,1010.29
2023-01-26T23:47:51.949Z,1010.31
2023-01-26T23:50:51.949Z,1010.24
2023-01-26T23:53:51.949Z,1010.24
2023-01-26T23:56:51.955Z,1010.21
2023-01-26T23:59:51.952Z,1010.25
